createdAt,value
2023-02-14T00:02:20.672Z,25.37
2023-02-14T00:07:19.566Z,27.47
2023-02-14T00:12:19.832Z,30.27
2023-02-14T00:17:18.531Z,29.92
2023-02-14T00:22:17.408Z,28.33
2023-02-14T00:27:16.236Z,28.80
2023-02-14T00:32:16.440Z,34.40
2023-02-14T00:37:16.872Z,24.30
2023-02-14T00:42:17.184Z,35.33
2023-02-14T00:47:20.242Z,26.87
2023-02-14T00:52:19.079Z,83.32
2023-02-14T00:57:17.892Z,62.47
2023-02-14T01:02:16.694Z,28.43
2023-02-14T01:07:16.930Z,31.10
2023-02-14T01:12:15.817Z,30.53
2023-02-14T01:17:14.647Z,35.80
2023-02-14T01:22:13.546Z,41.23
2023-02-14T01:27:14.442Z,27.63
2023-02-14T01:32:13.278Z,27.43
2023-02-14T01:37:12.101Z,26.03
2023-02-14T01:42:13.280Z,23.63
2023-02-14T01:47:13.078Z,23.67
2023-02-14T01:52:15.978Z,24.33
2023-02-14T01:57:22.370Z,23.30
2023-02-14T02:02:24.045Z,25.17
2023-02-14T02:07:26.647Z,24.57
2023-02-14T02:12:28.716Z,21.97
2023-02-14T02:17:37.685Z,21.73
2023-02-14T02:23:18.434Z,23.23
2023-02-14T02:28:40.059Z,24.30
2023-02-14T02:34:07.683Z,23.53
2023-02-14T02:39:22.588Z,21.90
2023-02-14T02:44:29.074Z,22.57
2023-02-14T02:49:55.385Z,24.10
2023-02-14T02:55:02.383Z,22.30
2023-02-14T03:00:03.619Z,22.20
2023-02-14T03:05:06.895Z,22.83
2023-02-14T03:10:13.470Z,20.52
2023-02-14T03:15:22.270Z,21.50
2023-02-14T03:20:25.804Z,21.83
2023-02-14T03:25:36.640Z,20.13
2023-02-14T03:30:43.673Z,24.03
2023-02-14T03:35:54.577Z,23.23
2023-02-14T03:41:00.859Z,23.43
2023-02-14T03:46:08.603Z,23.60
2023-02-14T03:51:11.497Z,22.40
2023-02-14T03:56:15.715Z,26.03
2023-02-14T04:01:18.845Z,24.27
2023-02-14T04:06:19.684Z,18.10
2023-02-14T04:11:19.974Z,25.03
2023-02-14T04:16:18.844Z,22.47
2023-02-14T04:21:17.929Z,27.83
2023-02-14T04:26:16.794Z,33.33
2023-02-14T04:31:17.551Z,30.47
2023-02-14T04:36:16.396Z,41.50
2023-02-14T04:41:15.247Z,30.37
2023-02-14T04:46:14.809Z,22.13
2023-02-14T04:51:15.146Z,24.30
2023-02-14T04:56:13.901Z,26.60
2023-02-14T05:01:12.731Z,28.37
2023-02-14T05:06:11.662Z,34.00
2023-02-14T05:11:12.010Z,40.13
2023-02-14T05:16:10.882Z,28.50
2023-02-14T05:21:09.744Z,42.10
2023-02-14T05:26:08.608Z,37.30
2023-02-14T05:31:09.182Z,37.53
2023-02-14T05:36:08.810Z,38.50
2023-02-14T05:41:07.808Z,31.27
2023-02-14T05:46:08.319Z,33.03
2023-02-14T05:51:08.613Z,42.83
2023-02-14T05:56:08.430Z,44.03
2023-02-14T06:01:09.018Z,42.03
2023-02-14T06:06:08.162Z,49.07
2023-02-14T06:11:07.021Z,56.17
2023-02-14T06:16:06.283Z,63.53
2023-02-14T06:21:07.019Z,59.13
2023-02-14T06:26:06.085Z,51.00
2023-02-14T06:31:05.265Z,38.07
2023-02-14T06:36:04.242Z,33.97
2023-02-14T06:41:06.730Z,30.00
2023-02-14T06:46:05.910Z,26.83
2023-02-14T06:51:05.498Z,36.43
2023-02-14T06:56:06.363Z,26.80
2023-02-14T07:01:05.691Z,31.53
2023-02-14T07:06:05.141Z,44.17
2023-02-14T07:11:05.444Z,33.57
2023-02-14T07:16:04.292Z,45.47
2023-02-14T07:21:03.538Z,24.97
2023-02-14T07:26:02.384Z,29.90
2023-02-14T07:31:03.421Z,32.63
2023-02-14T07:36:06.317Z,32.17
2023-02-14T07:41:05.627Z,27.40
2023-02-14T07:46:06.062Z,24.73
2023-02-14T07:51:06.771Z,28.37
2023-02-14T07:56:05.780Z,26.57
2023-02-14T08:01:06.178Z,24.57
2023-02-14T08:06:05.027Z,22.67
2023-02-14T08:11:03.883Z,26.17
2023-02-14T08:16:05.958Z,24.50
2023-02-14T08:21:08.766Z,25.57
2023-02-14T08:26:07.826Z,25.23
2023-02-14T08:31:06.935Z,26.93
2023-02-14T08:36:07.700Z,27.13
2023-02-14T08:41:08.859Z,25.97
2023-02-14T08:46:08.272Z,24.27
2023-02-14T08:51:09.755Z,25.80
2023-02-14T08:56:10.828Z,25.53
2023-02-14T09:01:10.733Z,26.03
2023-02-14T09:06:14.366Z,25.60
2023-02-14T09:11:15.800Z,23.27
2023-02-14T09:16:17.696Z,24.63
2023-02-14T09:21:20.738Z,24.88
2023-02-14T09:26:20.138Z,26.07
2023-02-14T09:31:20.751Z,22.13
2023-02-14T09:36:38.505Z,21.40
2023-02-14T09:42:08.281Z,23.00
2023-02-14T09:47:13.811Z,22.20
2023-02-14T09:52:17.102Z,22.73
2023-02-14T09:57:24.328Z,22.58
2023-02-14T10:02:44.680Z,21.13
2023-02-14T10:07:56.937Z,20.48
2023-02-14T10:13:01.624Z,20.75
2023-02-14T10:18:04.437Z,21.75
2023-02-14T10:23:13.733Z,20.23
2023-02-14T10:28:16.996Z,21.27
2023-02-14T10:33:19.514Z,20.15
2023-02-14T10:38:41.185Z,20.48
2023-02-14T10:43:49.630Z,20.20
2023-02-14T10:48:58.985Z,21.55
2023-02-14T10:54:15.473Z,22.00
2023-02-14T10:59:23.446Z,21.27
2023-02-14T11:04:24.836Z,21.23
2023-02-14T11:09:25.190Z,21.08
2023-02-14T11:14:28.305Z,20.50
2023-02-14T11:19:29.445Z,21.23
2023-02-14T11:24:33.106Z,22.17
2023-02-14T11:29:35.011Z,19.23
2023-02-14T11:34:36.840Z,18.73
2023-02-14T11:39:37.228Z,18.15
2023-02-14T11:44:37.354Z,19.83
2023-02-14T11:49:36.941Z,18.45
2023-02-14T11:54:39.181Z,19.23
2023-02-14T11:59:42.898Z,23.33
2023-02-14T12:04:46.753Z,21.63
2023-02-14T12:09:47.772Z,23.10
2023-02-14T12:14:46.882Z,22.60
2023-02-14T12:19:50.731Z,22.73
2023-02-14T12:25:00.442Z,24.13
2023-02-14T12:30:07.430Z,21.90
2023-02-14T12:35:16.130Z,23.23
2023-02-14T12:40:24.279Z,23.80
2023-02-14T12:45:31.740Z,25.13
2023-02-14T12:50:45.420Z,24.60
2023-02-14T12:55:58.310Z,25.35
2023-02-14T13:01:08.983Z,23.88
2023-02-14T13:06:16.332Z,26.50
2023-02-14T13:11:30.272Z,26.02
2023-02-14T13:16:36.381Z,26.35
2023-02-14T13:21:38.767Z,25.88
2023-02-14T13:26:42.840Z,28.20
2023-02-14T13:31:43.101Z,26.67
2023-02-14T13:36:42.521Z,57.25
2023-02-14T13:41:42.899Z,33.75
2023-02-14T13:46:51.762Z,22.63
2023-02-14T13:51:53.607Z,25.63
2023-02-14T13:56:53.850Z,26.00
2023-02-14T14:01:52.650Z,26.17
2023-02-14T14:07:17.174Z,25.88
2023-02-14T14:12:57.470Z,23.58
2023-02-14T14:18:32.845Z,24.40
2023-02-14T14:23:37.274Z,24.95
2023-02-14T14:28:36.405Z,22.50
2023-02-14T14:33:37.821Z,22.13
2023-02-14T14:38:49.404Z,19.15
2023-02-14T14:43:48.807Z,22.73
2023-02-14T14:48:50.195Z,24.42
2023-02-14T14:53:54.048Z,25.48
2023-02-14T14:58:53.277Z,27.35
2023-02-14T15:03:52.226Z,29.83
2023-02-14T15:08:52.892Z,31.55
2023-02-14T15:13:54.609Z,28.33
2023-02-14T15:18:56.763Z,28.00
2023-02-14T15:23:57.282Z,26.03
2023-02-14T15:29:01.083Z,26.42
2023-02-14T15:34:03.112Z,27.58
2023-02-14T15:39:08.538Z,26.03
2023-02-14T15:44:24.420Z,28.23
2023-02-14T15:49:28.891Z,38.85
2023-02-14T15:54:37.063Z,32.67
2023-02-14T15:59:43.197Z,35.78
2023-02-14T16:04:42.147Z,42.85
2023-02-14T16:09:42.633Z,46.90
2023-02-14T16:14:45.801Z,47.63
2023-02-14T16:19:46.542Z,54.35
2023-02-14T16:24:46.704Z,56.10
2023-02-14T16:29:45.427Z,54.92
2023-02-14T16:34:45.693Z,56.67
2023-02-14T16:39:46.543Z,64.28
2023-02-14T16:44:45.953Z,13.75
2023-02-14T16:49:46.201Z,23.45
2023-02-14T16:54:46.921Z,33.28
2023-02-14T16:59:45.886Z,44.10
2023-02-14T17:04:50.184Z,46.63
2023-02-14T17:09:53.648Z,49.95
2023-02-14T17:14:55.827Z,48.80
2023-02-14T17:19:54.752Z,68.32
2023-02-14T17:24:56.946Z,61.05
2023-02-14T17:29:56.141Z,59.83
2023-02-14T17:34:55.006Z,60.15
2023-02-14T17:39:55.597Z,51.42
2023-02-14T17:44:54.402Z,52.28
2023-02-14T17:49:53.274Z,52.83
2023-02-14T17:54:52.489Z,45.97
2023-02-14T17:59:52.662Z,46.22
2023-02-14T18:04:51.476Z,43.13
2023-02-14T18:09:50.310Z,44.75
2023-02-14T18:14:49.504Z,44.53
2023-02-14T18:19:50.467Z,46.60
2023-02-14T18:24:49.514Z,48.20
2023-02-14T18:29:50.269Z,44.53
2023-02-14T18:34:51.189Z,41.63
2023-02-14T18:39:49.861Z,41.42
2023-02-14T18:44:48.661Z,39.85
2023-02-14T18:49:47.368Z,39.10
2023-02-14T18:54:47.531Z,44.67
2023-02-14T18:59:46.682Z,43.05
2023-02-14T19:04:45.439Z,48.63
2023-02-14T19:09:44.289Z,44.53
2023-02-14T19:14:44.692Z,40.25
2023-02-14T19:19:43.832Z,41.80
2023-02-14T19:24:44.531Z,44.30
2023-02-14T19:29:44.869Z,41.65
2023-02-14T19:34:48.402Z,41.63
2023-02-14T19:39:47.816Z,40.10
2023-02-14T19:44:51.101Z,38.60
2023-02-14T19:49:49.864Z,40.38
2023-02-14T19:54:48.590Z,46.40
2023-02-14T19:59:49.191Z,56.42
2023-02-14T20:04:47.925Z,53.28
2023-02-14T20:09:50.309Z,48.65
2023-02-14T20:14:54.129Z,34.83
2023-02-14T20:19:52.945Z,30.45
2023-02-14T20:24:51.851Z,28.80
2023-02-14T20:29:52.084Z,30.85
2023-02-14T20:34:54.631Z,31.67
2023-02-14T20:39:53.548Z,30.23
2023-02-14T20:44:54.054Z,29.38
2023-02-14T20:49:53.098Z,30.25
2023-02-14T20:54:55.479Z,32.15
2023-02-14T20:59:56.101Z,33.25
2023-02-14T21:05:00.363Z,26.45
2023-02-14T21:10:02.401Z,23.90
2023-02-14T21:15:02.776Z,30.10
2023-02-14T21:20:07.765Z,26.17
2023-02-14T21:25:19.905Z,24.55
2023-02-14T21:30:24.281Z,23.65
2023-02-14T21:35:33.406Z,27.35
2023-02-14T21:40:34.910Z,26.63
2023-02-14T21:45:52.438Z,23.92
2023-02-14T21:50:51.212Z,26.67
2023-02-14T21:55:49.988Z,28.75
2023-02-14T22:00:50.208Z,26.73
2023-02-14T22:05:49.019Z,24.98
2023-02-14T22:10:47.892Z,24.33
2023-02-14T22:15:46.820Z,26.08
2023-02-14T22:20:47.371Z,26.92
2023-02-14T22:25:46.102Z,28.48
2023-02-14T22:30:44.892Z,26.13
2023-02-14T22:35:43.613Z,24.27
2023-02-14T22:40:43.701Z,23.88
2023-02-14T22:45:42.534Z,24.10
2023-02-14T22:50:41.354Z,26.83
2023-02-14T22:55:40.973Z,23.52
2023-02-14T23:00:41.138Z,25.02
2023-02-14T23:05:39.878Z,23.33
2023-02-14T23:10:38.612Z,23.17
2023-02-14T23:15:54.772Z,22.70
2023-02-14T23:21:12.774Z,22.38
2023-02-14T23:26:14.376Z,23.30
2023-02-14T23:31:13.182Z,23.47
2023-02-14T23:36:13.311Z,32.93
2023-02-14T23:41:29.885Z,33.43
2023-02-14T23:46:28.685Z,24.88
2023-02-14T23:51:28.796Z,24.33
2023-02-14T23:56:27.580Z,23.37
